Time;durP1;ratioP1;P1;durP2;ratioP2;P2;SDS_P1;SDS_P2;PMS_P1;PMS_P2;Temp;Humidity;BMP_temperature;BMP_pressure;BME280_temperature;BME280_humidity;BME280_pressure;Samples;Min_cycle;Max_cycle;Signal;HPM_P1;HPM_P2
2023/10/14 00:09:11;;;;;;;38.15;24.88;;;11.50;99.90;;;;;;25339790;23;20014;-59
2023/10/14 00:19:12;;;;;;;31.60;18.45;;;11.30;99.90;;;;;;25380144;23;20010;-59
2023/10/14 00:29:19;;;;;;;42.58;22.77;;;11.20;99.90;;;;;;25340790;23;20034;-58
2023/10/14 00:39:26;;;;;;;40.20;23.25;;;10.70;99.90;;;;;;25353584;23;20624;-59
2023/10/14 00:49:31;;;;;;;50.88;29.02;;;10.60;99.90;;;;;;25380653;23;20446;-53
2023/10/14 00:59:34;;;;;;;48.83;28.60;;;10.50;99.90;;;;;;25346743;23;20013;-58
2023/10/14 01:19:47;;;;;;;33.47;20.00;;;11.00;99.90;;;;;;25386502;23;20010;-49
2023/10/14 01:29:51;;;;;;;33.33;19.05;;;11.00;99.90;;;;;;25319806;23;20131;-49
2023/10/14 01:39:57;;;;;;;40.95;22.42;;;10.60;99.90;;;;;;25345198;23;20381;-48
2023/10/14 01:50:00;;;;;;;47.47;27.75;;;10.20;99.90;;;;;;25385488;23;20009;-59
2023/10/14 02:00:24;;;;;;;41.03;24.83;;;10.00;99.90;;;;;;25344499;23;20021;-59
2023/10/14 02:10:27;;;;;;;40.03;23.63;;;9.90;99.90;;;;;;25384238;23;20010;-59
2023/10/14 02:20:37;;;;;;;38.25;22.42;;;9.70;99.90;;;;;;25343825;23;20406;-52
2023/10/14 02:30:39;;;;;;;29.08;19.73;;;9.70;99.90;;;;;;25357508;23;20061;-59
2023/10/14 02:40:41;;;;;;;14.38;9.60;;;9.80;99.90;;;;;;25342113;23;20002;-58
2023/10/14 02:50:50;;;;;;;29.08;14.13;;;10.00;99.90;;;;;;25342509;23;20010;-51
2023/10/14 03:00:59;;;;;;;19.03;12.27;;;10.60;99.90;;;;;;25343650;23;20449;-59
2023/10/14 03:11:15;;;;;;;16.38;10.10;;;11.80;99.90;;;;;;25383609;23;20112;-59
2023/10/14 03:21:23;;;;;;;17.55;11.40;;;11.00;99.90;;;;;;25383465;23;20005;-57
2023/10/14 03:31:25;;;;;;;16.83;10.57;;;10.30;99.90;;;;;;25380535;23;20006;-59
2023/10/14 03:41:37;;;;;;;20.05;12.82;;;9.90;99.90;;;;;;25339948;23;20006;-59
2023/10/14 03:51:39;;;;;;;18.63;12.70;;;10.00;99.90;;;;;;25378049;23;20346;-59
2023/10/14 04:11:43;;;;;;;26.67;16.50;;;10.10;99.90;;;;;;25339075;23;20512;-59
2023/10/14 04:21:53;;;;;;;29.20;17.02;;;9.90;99.90;;;;;;25339437;23;20006;-59
2023/10/14 04:31:55;;;;;;;27.20;16.80;;;10.00;99.90;;;;;;25387249;23;20006;-58
2023/10/14 04:52:18;;;;;;;35.30;19.52;;;9.50;99.90;;;;;;25382650;23;20002;-49
2023/10/14 05:02:21;;;;;;;35.50;21.02;;;9.40;99.90;;;;;;25340060;23;20303;-49
2023/10/14 05:12:25;;;;;;;43.13;23.92;;;9.30;99.90;;;;;;25337742;23;20034;-59
2023/10/14 05:22:41;;;;;;;42.13;20.77;;;9.20;99.90;;;;;;25337523;23;20009;-51
2023/10/14 05:32:44;;;;;;;35.92;21.23;;;9.20;99.90;;;;;;25377988;23;20021;-51
2023/10/14 05:42:46;;;;;;;37.78;22.52;;;9.10;99.90;;;;;;25337266;23;20438;-59
2023/10/14 05:52:49;;;;;;;29.25;17.88;;;9.10;99.90;;;;;;25281193;23;1340801;-58
2023/10/14 06:02:52;;;;;;;38.97;20.73;;;9.00;99.90;;;;;;25343820;23;20053;-51
2023/10/14 06:12:56;;;;;;;35.03;19.17;;;9.30;99.90;;;;;;25343260;23;20013;-51
2023/10/14 06:22:59;;;;;;;33.17;19.10;;;9.60;99.90;;;;;;25342123;23;20009;-59
2023/10/14 06:33:06;;;;;;;31.42;17.95;;;9.70;99.90;;;;;;25318405;23;20013;-50
2023/10/14 06:43:13;;;;;;;27.63;16.30;;;9.90;99.90;;;;;;25356150;23;20065;-50
2023/10/14 06:53:17;;;;;;;34.67;18.27;;;10.10;99.90;;;;;;25341705;23;20017;-52
2023/10/14 07:03:19;;;;;;;32.58;20.83;;;10.30;99.90;;;;;;25341323;23;20010;-58
2023/10/14 07:13:22;;;;;;;32.97;20.67;;;10.90;99.90;;;;;;25314312;23;20057;-58
2023/10/14 07:23:24;;;;;;;29.83;19.38;;;11.80;99.90;;;;;;25340275;23;20068;-49
2023/10/14 07:33:25;;;;;;;32.97;20.80;;;12.60;99.90;;;;;;25339560;23;20398;-59
2023/10/14 07:43:27;;;;;;;30.10;19.48;;;13.60;99.90;;;;;;25337120;23;20429;-60
2023/10/14 07:53:29;;;;;;;26.23;17.83;;;14.40;99.90;;;;;;25337833;23;20094;-53
2023/10/14 08:03:31;;;;;;;25.23;15.77;;;15.10;99.90;;;;;;25339435;23;20016;-62
2023/10/14 08:13:33;;;;;;;20.13;15.25;;;15.80;99.90;;;;;;25338297;23;20017;-62
2023/10/14 08:23:35;;;;;;;22.77;14.57;;;16.20;99.90;;;;;;25339181;23;20010;-62
2023/10/14 08:33:37;;;;;;;22.90;14.82;;;16.50;99.90;;;;;;25338938;23;20006;-63
2023/10/14 08:43:44;;;;;;;21.48;15.55;;;17.00;99.90;;;;;;25338886;23;20006;-62
2023/10/14 08:53:53;;;;;;;23.45;15.63;;;16.40;99.90;;;;;;25368824;23;20061;-62
2023/10/14 09:03:54;;;;;;;23.27;15.30;;;16.20;99.90;;;;;;25378898;23;20002;-64
2023/10/14 09:14:04;;;;;;;21.17;13.93;;;16.40;99.90;;;;;;25340644;23;20005;-62
2023/10/14 09:24:07;;;;;;;18.73;13.13;;;16.70;99.90;;;;;;25345082;23;20016;-63
2023/10/14 09:34:24;;;;;;;15.85;11.63;;;17.70;99.90;;;;;;25344104;23;20010;-63
2023/10/14 09:44:29;;;;;;;18.73;11.60;;;18.20;99.90;;;;;;25384191;23;20006;-63
2023/10/14 09:54:33;;;;;;;16.40;11.65;;;17.70;99.90;;;;;;25318553;23;20021;-63
2023/10/14 10:04:40;;;;;;;12.73;10.75;;;18.70;99.90;;;;;;25343544;23;20005;-62
2023/10/14 10:14:45;;;;;;;14.30;11.18;;;18.10;99.90;;;;;;25383679;23;20053;-51
2023/10/14 10:24:47;;;;;;;14.15;10.93;;;17.60;99.90;;;;;;25343464;23;20508;-62
2023/10/14 10:35:06;;;;;;;16.63;11.52;;;17.70;99.90;;;;;;25342450;23;20513;-62
2023/10/14 10:45:20;;;;;;;19.25;13.10;;;17.20;99.90;;;;;;25342827;23;20512;-61
2023/10/14 10:55:25;;;;;;;23.17;14.40;;;16.70;99.90;;;;;;25359574;23;20014;-62
2023/10/14 11:05:29;;;;;;;19.85;13.25;;;16.30;99.90;;;;;;25342322;23;20018;-62
2023/10/14 11:15:31;;;;;;;15.50;11.75;;;16.80;99.90;;;;;;25339653;23;20005;-63
2023/10/14 11:25:46;;;;;;;16.60;11.43;;;17.00;99.90;;;;;;25339671;23;20010;-63
2023/10/14 11:35:51;;;;;;;16.83;12.07;;;17.20;99.90;;;;;;25379209;23;20053;-61
2023/10/14 11:45:56;;;;;;;16.63;11.65;;;17.10;99.90;;;;;;25341294;23;20006;-62
2023/10/14 11:56:03;;;;;;;13.77;10.15;;;17.90;99.90;;;;;;25339091;23;20061;-63
2023/10/14 12:06:11;;;;;;;14.73;10.18;;;19.10;99.90;;;;;;25379457;23;20010;-63
2023/10/14 12:16:13;;;;;;;14.93;10.33;;;20.60;99.90;;;;;;25379579;23;20013;-64
2023/10/14 12:26:15;;;;;;;13.13;9.25;;;20.50;99.90;;;;;;25338543;23;20085;-63
2023/10/14 12:36:17;;;;;;;12.90;7.95;;;20.50;99.90;;;;;;25338138;23;20029;-63
2023/10/14 12:46:19;;;;;;;9.52;7.07;;;19.20;99.90;;;;;;25336195;23;20442;-64
2023/10/14 12:56:21;;;;;;;13.27;8.23;;;18.80;99.90;;;;;;25345836;23;20018;-63
2023/10/14 13:06:26;;;;;;;11.07;8.10;;;20.00;99.90;;;;;;25345523;23;20013;-63
2023/10/14 13:16:31;;;;;;;13.00;8.82;;;18.80;99.90;;;;;;25345218;23;20065;-63
2023/10/14 13:26:33;;;;;;;11.50;7.63;;;18.10;99.90;;;;;;25339989;23;20009;-64
2023/10/14 13:36:34;;;;;;;9.13;6.93;;;19.00;99.90;;;;;;25338213;23;20006;-64
2023/10/14 13:46:36;;;;;;;13.15;7.03;;;19.10;99.90;;;;;;25312703;23;20010;-63
2023/10/14 13:56:38;;;;;;;9.73;7.28;;;18.70;99.90;;;;;;25337669;23;20017;-62
2023/10/14 14:06:42;;;;;;;15.88;10.10;;;18.10;99.90;;;;;;25336955;23;20006;-62
2023/10/14 14:16:43;;;;;;;16.98;8.88;;;18.10;99.90;;;;;;25336589;23;20010;-62
2023/10/14 14:26:45;;;;;;;9.40;7.07;;;17.40;99.90;;;;;;25334493;23;20010;-62
2023/10/14 14:36:47;;;;;;;12.05;9.10;;;16.70;99.90;;;;;;25333969;23;20010;-62
2023/10/14 14:46:50;;;;;;;11.60;8.02;;;16.00;99.90;;;;;;25335806;23;20002;-62
2023/10/14 14:56:52;;;;;;;15.25;9.27;;;15.40;99.90;;;;;;25334916;23;20093;-62
2023/10/14 15:06:55;;;;;;;17.98;10.27;;;14.80;99.90;;;;;;25334285;23;20446;-62
2023/10/14 15:16:57;;;;;;;15.60;10.45;;;14.50;99.90;;;;;;25334049;23;20008;-60
2023/10/14 15:26:59;;;;;;;22.95;11.55;;;14.30;99.90;;;;;;25334142;23;19998;-61
2023/10/14 15:37:01;;;;;;;17.20;11.35;;;14.20;99.90;;;;;;25334335;23;20010;-59
2023/10/14 15:47:05;;;;;;;13.68;9.18;;;14.30;99.90;;;;;;25334768;23;20006;-51
2023/10/14 15:57:08;;;;;;;17.85;7.53;;;14.10;99.90;;;;;;25334293;23;20025;-60
2023/10/14 16:07:12;;;;;;;13.25;6.82;;;13.90;99.90;;;;;;25334286;23;20010;-60
2023/10/14 16:17:16;;;;;;;11.63;6.43;;;13.70;99.90;;;;;;25335158;23;20026;-60
2023/10/14 16:27:18;;;;;;;11.55;6.90;;;13.70;99.90;;;;;;25342165;23;20009;-61
2023/10/14 16:37:20;;;;;;;14.07;6.47;;;13.70;99.90;;;;;;25342860;23;20077;-60
2023/10/14 16:47:24;;;;;;;16.63;7.30;;;13.70;99.90;;;;;;25342715;23;20009;-61
2023/10/14 16:57:26;;;;;;;12.07;6.53;;;13.70;99.90;;;;;;25341264;23;20084;-61
2023/10/14 17:07:27;;;;;;;24.20;14.93;;;13.80;99.90;;;;;;25340491;23;20333;-53
2023/10/14 17:17:29;;;;;;;26.92;16.48;;;13.50;99.90;;;;;;25340998;23;20006;-60
2023/10/14 17:27:31;;;;;;;22.15;13.88;;;13.20;99.90;;;;;;25340401;23;20010;-60
2023/10/14 17:37:33;;;;;;;13.20;9.32;;;12.70;99.90;;;;;;25338651;23;20006;-60
2023/10/14 17:47:34;;;;;;;24.30;16.15;;;12.20;99.90;;;;;;25339735;23;20013;-60
2023/10/14 17:57:41;;;;;;;26.30;17.48;;;12.30;99.90;;;;;;25339148;23;20014;-60
2023/10/14 18:07:43;;;;;;;29.55;19.48;;;12.20;99.90;;;;;;25379287;23;20002;-52
2023/10/14 18:17:47;;;;;;;30.13;20.58;;;11.70;99.90;;;;;;25338833;23;20014;-60
2023/10/14 18:27:50;;;;;;;36.95;22.08;;;11.80;99.90;;;;;;25337740;23;20014;-60
2023/10/14 18:37:52;;;;;;;35.30;22.35;;;11.60;99.90;;;;;;25337588;23;20006;-60
2023/10/14 18:47:56;;;;;;;26.88;17.77;;;11.60;99.90;;;;;;25335385;23;20068;-60
2023/10/14 18:58:04;;;;;;;27.52;17.20;;;11.40;99.90;;;;;;25335235;23;20014;-60
2023/10/14 19:08:10;;;;;;;24.60;15.77;;;11.20;99.90;;;;;;25335815;23;20010;-59
2023/10/14 19:18:13;;;;;;;25.73;17.85;;;11.00;99.90;;;;;;25336661;23;20077;-60
2023/10/14 19:28:21;;;;;;;21.95;14.30;;;11.00;99.90;;;;;;25335547;23;20010;-59
2023/10/14 19:38:22;;;;;;;20.52;11.90;;;11.00;99.90;;;;;;25376489;23;20326;-59
2023/10/14 19:48:24;;;;;;;25.10;17.73;;;11.30;99.90;;;;;;25333929;23;20425;-59
2023/10/14 19:58:29;;;;;;;14.82;7.10;;;11.30;99.90;;;;;;25333737;23;20022;-58
2023/10/14 20:08:34;;;;;;;21.38;11.20;;;11.70;99.90;;;;;;25334077;23;20025;-49
2023/10/14 20:18:36;;;;;;;15.43;10.90;;;12.00;99.90;;;;;;25333720;23;20026;-59
2023/10/14 20:28:38;;;;;;;19.55;12.13;;;11.80;99.90;;;;;;25080317;23;20015;-59
2023/10/14 20:38:41;;;;;;;29.13;16.85;;;11.40;99.90;;;;;;25080494;23;20023;-59
2023/10/14 20:48:43;;;;;;;22.50;15.45;;;11.00;99.90;;;;;;25080390;23;20517;-59
2023/10/14 20:58:45;;;;;;;23.38;13.95;;;10.80;99.90;;;;;;25279362;23;20113;-49
2023/10/14 21:08:49;;;;;;;26.70;16.98;;;10.50;99.90;;;;;;25334936;23;20006;-59
2023/10/14 21:18:52;;;;;;;30.38;19.08;;;10.20;99.90;;;;;;25338381;23;20090;-59
2023/10/14 21:28:54;;;;;;;35.00;20.38;;;10.10;99.90;;;;;;25341347;23;20013;-59
2023/10/14 21:38:55;;;;;;;38.47;20.73;;;10.30;99.90;;;;;;25341193;23;20010;-58
2023/10/14 21:48:57;;;;;;;33.47;19.63;;;10.30;99.90;;;;;;25341549;23;20105;-51
2023/10/14 21:59:01;;;;;;;36.58;22.52;;;10.20;99.90;;;;;;25340050;23;20299;-59
2023/10/14 22:09:03;;;;;;;36.58;23.30;;;10.10;99.90;;;;;;25339721;23;20065;-59
2023/10/14 22:19:05;;;;;;;39.53;24.25;;;9.90;99.90;;;;;;25339419;23;20025;-59
2023/10/14 22:29:06;;;;;;;43.17;26.10;;;9.90;99.90;;;;;;25339852;23;20010;-59
2023/10/14 22:39:13;;;;;;;39.63;23.15;;;9.90;99.90;;;;;;25340426;23;20109;-50
2023/10/14 22:49:14;;;;;;;41.33;23.88;;;9.90;99.90;;;;;;25381343;23;20161;-59
2023/10/14 22:59:16;;;;;;;46.67;26.60;;;9.90;99.90;;;;;;25340238;23;20014;-59
2023/10/14 23:09:21;;;;;;;40.47;24.92;;;10.00;99.90;;;;;;25339889;23;20014;-60
2023/10/14 23:19:24;;;;;;;44.83;26.83;;;10.10;99.90;;;;;;25339080;23;20354;-58
2023/10/14 23:29:26;;;;;;;41.25;26.80;;;10.20;99.90;;;;;;25312715;23;20006;-59
2023/10/14 23:39:40;;;;;;;49.08;25.88;;;10.40;99.90;;;;;;25339479;23;20006;-59
2023/10/14 23:49:43;;;;;;;33.35;21.52;;;10.40;99.90;;;;;;25352968;23;20010;-59
2023/10/14 23:59:46;;;;;;;39.70;23.05;;;10.10;99.90;;;;;;25338157;23;20077;-51
